createdAt,value
2019-05-17T00:00:12.939Z,46.37
2019-05-17T00:03:03.503Z,46.35
2019-05-17T00:05:52.708Z,46.37
2019-05-17T00:08:43.821Z,46.39
2019-05-17T00:11:36.620Z,46.46
2019-05-17T00:14:27.109Z,46.47
2019-05-17T00:17:17.566Z,46.51
2019-05-17T00:20:10.255Z,46.71
2019-05-17T00:23:00.070Z,46.83
2019-05-17T00:25:49.735Z,46.67
2019-05-17T00:28:39.531Z,46.84
2019-05-17T00:31:29.476Z,46.95
2019-05-17T00:34:19.459Z,47.05
2019-05-17T00:37:10.534Z,47.18
2019-05-17T00:40:00.691Z,46.98
2019-05-17T00:42:51.754Z,47.15
2019-05-17T00:45:41.428Z,47.32
2019-05-17T00:48:30.450Z,47.33
2019-05-17T00:51:19.872Z,47.51
2019-05-17T00:54:09.561Z,47.51
2019-05-17T00:56:59.465Z,47.41
2019-05-17T00:59:49.697Z,47.39
2019-05-17T01:02:39.149Z,47.46
2019-05-17T01:05:28.327Z,47.42
2019-05-17T01:08:18.385Z,47.31
2019-05-17T01:11:07.982Z,47.38
2019-05-17T01:13:58.667Z,47.47
2019-05-17T01:16:48.711Z,47.53
2019-05-17T01:19:38.375Z,47.58
2019-05-17T01:22:28.085Z,47.81
2019-05-17T01:25:18.371Z,48.18
2019-05-17T01:28:07.845Z,48.26
2019-05-17T01:30:57.565Z,48.33
2019-05-17T01:33:47.186Z,48.22
2019-05-17T01:36:37.307Z,48.15
2019-05-17T01:39:27.067Z,48.26
2019-05-17T01:42:17.342Z,48.49
2019-05-17T01:45:08.618Z,48.38
2019-05-17T01:47:58.471Z,48.47
2019-05-17T01:50:47.572Z,48.39
2019-05-17T01:53:37.463Z,48.28
2019-05-17T01:56:27.011Z,48.25
2019-05-17T01:59:17.291Z,48.24
2019-05-17T02:02:10.153Z,48.37
2019-05-17T02:05:00.208Z,48.25
2019-05-17T02:07:49.862Z,48.28
2019-05-17T02:10:38.943Z,48.43
2019-05-17T02:13:28.103Z,48.24
2019-05-17T02:16:17.627Z,48.11
2019-05-17T02:19:06.878Z,48.10
2019-05-17T02:21:57.143Z,48.13
2019-05-17T02:24:46.842Z,48.14
2019-05-17T02:27:41.261Z,48.15
2019-05-17T02:30:28.270Z,48.16
2019-05-17T02:33:18.273Z,48.39
2019-05-17T02:36:07.571Z,48.47
2019-05-17T02:38:57.717Z,48.60
2019-05-17T02:41:46.580Z,48.41
2019-05-17T02:44:35.985Z,48.44
2019-05-17T02:47:24.898Z,48.45
2019-05-17T02:50:15.002Z,48.40
2019-05-17T02:53:04.829Z,48.44
2019-05-17T02:55:55.642Z,48.52
2019-05-17T02:58:46.288Z,48.48
2019-05-17T03:01:36.254Z,48.75
2019-05-17T03:04:26.200Z,48.66
2019-05-17T03:07:17.240Z,48.68
2019-05-17T03:10:18.383Z,48.79
2019-05-17T03:12:57.777Z,48.78
2019-05-17T03:15:47.783Z,49.06
2019-05-17T03:18:36.857Z,49.06
2019-05-17T03:21:27.248Z,49.17
2019-05-17T03:24:16.375Z,49.05
2019-05-17T03:27:05.954Z,49.02
2019-05-17T03:29:56.087Z,49.41
2019-05-17T03:32:48.215Z,49.22
2019-05-17T03:35:45.247Z,49.38
2019-05-17T03:38:32.491Z,49.42
2019-05-17T03:41:28.485Z,49.39
2019-05-17T03:44:13.760Z,49.94
2019-05-17T03:47:03.860Z,49.77
2019-05-17T03:49:53.312Z,49.67
2019-05-17T03:52:44.472Z,49.70
2019-05-17T03:55:35.081Z,49.43
2019-05-17T03:58:25.191Z,49.58
2019-05-17T04:01:14.783Z,49.84
2019-05-17T04:04:04.162Z,49.55
2019-05-17T04:06:53.439Z,49.60
2019-05-17T04:09:43.845Z,49.65
2019-05-17T04:12:32.955Z,49.82
2019-05-17T04:15:24.028Z,49.96
2019-05-17T04:18:14.370Z,49.75
2019-05-17T04:21:03.786Z,49.75
2019-05-17T04:23:53.923Z,49.75
2019-05-17T04:26:44.145Z,49.63
2019-05-17T04:29:35.245Z,49.60
2019-05-17T04:32:24.417Z,49.79
2019-05-17T04:35:14.075Z,50.03
2019-05-17T04:38:04.601Z,49.96
2019-05-17T04:40:54.152Z,49.98
2019-05-17T04:43:43.352Z,50.01
2019-05-17T04:46:32.788Z,49.98
2019-05-17T04:49:24.279Z,50.05
2019-05-17T04:52:13.862Z,50.30
2019-05-17T04:55:04.470Z,50.37
2019-05-17T04:57:54.153Z,50.43
2019-05-17T05:00:44.169Z,50.28
2019-05-17T05:03:33.072Z,50.25
2019-05-17T05:06:23.319Z,50.30
2019-05-17T05:09:13.076Z,50.47
2019-05-17T05:12:05.831Z,50.52
2019-05-17T05:14:52.515Z,50.59
2019-05-17T05:17:43.129Z,50.67
2019-05-17T05:20:33.242Z,50.61
2019-05-17T05:23:23.837Z,50.65
2019-05-17T05:26:14.050Z,50.78
2019-05-17T05:29:03.629Z,50.98
2019-05-17T05:31:53.267Z,51.21
2019-05-17T05:34:43.290Z,50.99
2019-05-17T05:37:33.361Z,50.89
2019-05-17T05:40:22.274Z,50.92
2019-05-17T05:43:12.203Z,51.01
2019-05-17T05:46:02.618Z,51.07
2019-05-17T05:48:53.274Z,50.79
2019-05-17T05:51:43.497Z,50.82
2019-05-17T05:54:33.456Z,50.99
2019-05-17T05:57:22.812Z,51.14
2019-05-17T06:00:13.476Z,51.23
2019-05-17T06:03:04.202Z,54.19
2019-05-17T06:05:54.034Z,54.07
2019-05-17T06:08:44.251Z,53.12
2019-05-17T06:11:34.090Z,52.54
2019-05-17T06:14:23.453Z,52.19
2019-05-17T06:17:13.758Z,52.26
2019-05-17T06:20:03.589Z,52.42
2019-05-17T06:22:54.286Z,52.04
2019-05-17T06:25:44.223Z,52.18
2019-05-17T06:28:34.204Z,51.98
2019-05-17T06:31:24.175Z,51.69
2019-05-17T06:34:14.415Z,51.84
2019-05-17T06:37:04.671Z,51.38
2019-05-17T06:39:54.652Z,51.50
2019-05-17T06:42:47.026Z,51.47
2019-05-17T06:45:37.314Z,51.90
2019-05-17T06:48:28.207Z,51.95
2019-05-17T06:51:17.794Z,51.78
2019-05-17T06:54:07.796Z,52.19
2019-05-17T06:56:58.930Z,52.77
2019-05-17T06:59:48.754Z,51.99
2019-05-17T07:02:40.228Z,51.75
2019-05-17T07:05:32.943Z,51.68
2019-05-17T07:08:23.614Z,52.57
2019-05-17T07:11:15.064Z,52.49
2019-05-17T07:14:05.432Z,51.96
2019-05-17T07:16:55.789Z,51.88
2019-05-17T07:19:45.942Z,52.40
2019-05-17T07:22:35.500Z,51.68
2019-05-17T07:25:25.023Z,52.02
2019-05-17T07:28:15.110Z,51.51
2019-05-17T07:31:05.147Z,51.85
2019-05-17T07:33:55.512Z,51.59
2019-05-17T07:36:45.563Z,51.97
2019-05-17T07:39:36.103Z,51.56
2019-05-17T07:42:26.321Z,51.26
2019-05-17T07:45:15.691Z,50.69
2019-05-17T07:48:05.816Z,50.40
2019-05-17T07:50:56.770Z,50.22
2019-05-17T07:53:46.094Z,50.22
2019-05-17T07:56:34.870Z,50.11
2019-05-17T07:59:24.081Z,49.93
2019-05-17T08:02:13.940Z,49.97
2019-05-17T08:05:04.158Z,49.83
2019-05-17T08:07:53.355Z,49.41
2019-05-17T08:10:42.471Z,49.56
2019-05-17T08:13:33.817Z,49.62
2019-05-17T08:16:23.375Z,49.74
2019-05-17T08:19:12.783Z,49.57
2019-05-17T08:22:02.421Z,48.58
2019-05-17T08:24:51.981Z,49.03
2019-05-17T08:27:42.294Z,49.06
2019-05-17T08:30:32.178Z,48.16
2019-05-17T08:33:22.122Z,48.18
2019-05-17T08:36:12.155Z,47.81
2019-05-17T08:39:02.057Z,47.55
2019-05-17T08:41:51.928Z,46.87
2019-05-17T08:44:42.596Z,46.84
2019-05-17T08:47:32.817Z,46.70
2019-05-17T08:50:23.076Z,46.67
2019-05-17T08:53:11.951Z,46.45
2019-05-17T08:56:01.643Z,46.48
2019-05-17T08:58:51.105Z,46.29
2019-05-17T09:01:41.793Z,46.22
2019-05-17T09:04:30.754Z,46.08
2019-05-17T09:07:20.593Z,46.02
2019-05-17T09:10:10.749Z,45.88
2019-05-17T09:13:00.299Z,45.95
2019-05-17T09:15:49.816Z,46.04
2019-05-17T09:18:41.899Z,45.82
2019-05-17T09:21:31.616Z,45.56
2019-05-17T09:24:20.887Z,45.13
2019-05-17T09:27:10.249Z,44.63
2019-05-17T09:30:00.282Z,44.50
2019-05-17T09:32:50.539Z,44.02
2019-05-17T09:35:40.792Z,43.35
2019-05-17T09:38:31.540Z,43.39
2019-05-17T09:41:23.629Z,43.32
2019-05-17T09:44:16.257Z,43.14
2019-05-17T09:47:03.421Z,42.79
2019-05-17T09:49:53.382Z,42.71
2019-05-17T09:52:42.306Z,42.52
2019-05-17T09:55:31.401Z,42.54
2019-05-17T09:58:21.655Z,42.85
2019-05-17T10:01:11.457Z,42.93
2019-05-17T10:04:00.452Z,42.96
2019-05-17T10:06:51.211Z,43.02
2019-05-17T10:09:40.141Z,43.06
2019-05-17T10:12:28.863Z,43.00
2019-05-17T10:15:17.402Z,42.50
2019-05-17T10:18:06.477Z,42.33
2019-05-17T10:20:55.117Z,42.09
2019-05-17T10:23:44.503Z,42.17
2019-05-17T10:26:33.189Z,42.03
2019-05-17T10:29:21.828Z,42.28
2019-05-17T10:32:11.756Z,42.50
2019-05-17T10:35:01.240Z,42.23
2019-05-17T10:37:50.574Z,42.21
2019-05-17T10:40:40.776Z,42.42
2019-05-17T10:43:31.586Z,42.27
2019-05-17T10:46:21.125Z,42.31
2019-05-17T10:49:10.997Z,42.09
2019-05-17T10:52:00.167Z,42.14
2019-05-17T10:54:49.766Z,41.99
2019-05-17T10:57:39.339Z,42.09
2019-05-17T11:00:30.314Z,42.17
2019-05-17T11:03:20.340Z,42.19
2019-05-17T11:06:10.947Z,42.37
2019-05-17T11:08:59.814Z,42.17
2019-05-17T11:11:49.320Z,41.89
2019-05-17T11:14:52.349Z,41.90
2019-05-17T11:17:29.167Z,41.73
2019-05-17T11:20:18.333Z,41.36
2019-05-17T11:23:07.436Z,41.60
2019-05-17T11:25:56.367Z,41.38
2019-05-17T11:28:45.736Z,41.47
2019-05-17T11:31:35.141Z,41.38
2019-05-17T11:34:25.600Z,41.15
2019-05-17T11:37:14.851Z,41.29
2019-05-17T11:40:08.043Z,41.28
2019-05-17T11:42:55.903Z,41.14
2019-05-17T11:45:46.012Z,41.20
2019-05-17T11:48:35.119Z,41.32
2019-05-17T11:51:26.971Z,41.06
2019-05-17T11:54:15.592Z,40.78
2019-05-17T11:57:04.357Z,40.63
2019-05-17T11:59:53.974Z,40.34
2019-05-17T12:02:43.422Z,40.24
2019-05-17T12:05:32.957Z,40.21
2019-05-17T12:08:22.508Z,39.74
2019-05-17T12:11:12.146Z,39.47
2019-05-17T12:14:01.885Z,39.71
2019-05-17T12:16:50.909Z,39.64
2019-05-17T12:19:40.813Z,39.52
2019-05-17T12:22:30.285Z,39.17
2019-05-17T12:25:20.960Z,38.98
2019-05-17T12:28:10.198Z,38.95
2019-05-17T12:30:59.371Z,38.93
2019-05-17T12:33:48.952Z,38.68
2019-05-17T12:36:38.508Z,38.25
2019-05-17T12:39:27.228Z,38.14
2019-05-17T12:42:16.413Z,37.92
2019-05-17T12:45:05.293Z,37.56
2019-05-17T12:47:54.955Z,37.45
2019-05-17T12:50:44.373Z,37.15
2019-05-17T12:53:34.018Z,37.17
2019-05-17T12:56:22.736Z,37.16
2019-05-17T12:59:11.389Z,37.05
2019-05-17T13:02:00.892Z,37.05
2019-05-17T13:04:50.587Z,37.10
2019-05-17T13:07:40.592Z,36.96
2019-05-17T13:10:30.450Z,37.11
2019-05-17T13:13:19.501Z,37.08
2019-05-17T13:16:17.423Z,36.91
2019-05-17T13:18:59.946Z,37.06
2019-05-17T13:21:49.680Z,37.34
2019-05-17T13:24:38.915Z,37.16
2019-05-17T13:27:28.557Z,36.73
2019-05-17T13:30:38.772Z,36.73
2019-05-17T13:33:29.304Z,36.72
2019-05-17T13:36:18.836Z,36.81
2019-05-17T13:39:08.481Z,36.93
2019-05-17T13:41:57.385Z,36.78
2019-05-17T13:44:46.069Z,37.07
2019-05-17T13:47:35.531Z,37.06
2019-05-17T13:50:24.673Z,36.90
2019-05-17T13:53:14.083Z,37.02
2019-05-17T13:56:03.616Z,37.27
2019-05-17T13:58:53.108Z,37.14
2019-05-17T14:01:43.003Z,37.21
2019-05-17T14:04:31.970Z,37.37
2019-05-17T14:07:20.984Z,37.39
2019-05-17T14:10:26.063Z,37.42
2019-05-17T14:13:03.177Z,37.49
2019-05-17T14:15:52.793Z,37.66
2019-05-17T14:18:42.047Z,37.70
2019-05-17T14:21:31.255Z,37.75
2019-05-17T14:24:20.949Z,37.83
2019-05-17T14:27:10.449Z,37.96
2019-05-17T14:30:00.006Z,38.15
2019-05-17T14:32:49.245Z,38.17
2019-05-17T14:35:40.114Z,38.32
2019-05-17T14:38:28.700Z,38.28
2019-05-17T14:41:17.994Z,38.43
2019-05-17T14:44:07.350Z,38.57
2019-05-17T14:46:56.562Z,38.59
2019-05-17T14:49:45.521Z,38.61
2019-05-17T14:52:34.678Z,38.72
2019-05-17T14:55:23.650Z,38.82
2019-05-17T14:58:13.034Z,38.78
2019-05-17T15:01:02.377Z,39.10
2019-05-17T15:03:52.220Z,39.17
2019-05-17T15:06:41.919Z,39.23
2019-05-17T15:09:31.135Z,39.19
2019-05-17T15:12:28.387Z,39.24
2019-05-17T15:15:11.186Z,39.35
2019-05-17T15:17:59.950Z,39.39
2019-05-17T15:20:48.530Z,39.39
2019-05-17T15:23:37.180Z,39.41
2019-05-17T15:26:27.924Z,39.47
2019-05-17T15:29:17.346Z,39.56
2019-05-17T15:32:07.428Z,39.66
2019-05-17T15:34:56.087Z,39.75
2019-05-17T15:37:45.151Z,39.57
2019-05-17T15:40:35.045Z,39.71
2019-05-17T15:43:25.264Z,39.67
2019-05-17T15:46:14.806Z,39.81
2019-05-17T15:49:03.456Z,39.65
2019-05-17T15:51:52.542Z,39.68
2019-05-17T15:54:41.816Z,39.86
2019-05-17T15:57:30.539Z,39.92
2019-05-17T16:00:20.085Z,39.99
2019-05-17T16:03:09.393Z,40.13
2019-05-17T16:05:58.599Z,40.07
2019-05-17T16:08:48.072Z,40.20
2019-05-17T16:11:37.590Z,40.22
2019-05-17T16:14:26.594Z,40.19
2019-05-17T16:17:16.063Z,40.36
2019-05-17T16:20:05.587Z,40.49
2019-05-17T16:22:55.214Z,40.42
2019-05-17T16:25:44.782Z,40.55
2019-05-17T16:28:33.992Z,40.62
2019-05-17T16:31:23.403Z,40.76
2019-05-17T16:34:12.191Z,40.77
2019-05-17T16:37:01.607Z,40.78
2019-05-17T16:39:51.031Z,40.95
2019-05-17T16:42:40.400Z,41.01
2019-05-17T16:45:29.659Z,40.96
2019-05-17T16:48:19.045Z,41.01
2019-05-17T16:51:08.754Z,41.12
2019-05-17T16:54:03.907Z,41.16
2019-05-17T16:56:50.440Z,41.40
2019-05-17T16:59:39.368Z,41.56
2019-05-17T17:02:28.247Z,41.44
2019-05-17T17:05:17.794Z,41.51
2019-05-17T17:08:08.028Z,41.71
2019-05-17T17:10:57.311Z,41.83
2019-05-17T17:13:48.261Z,41.98
2019-05-17T17:16:37.466Z,42.02
2019-05-17T17:23:04.946Z,42.42
2019-05-17T17:25:53.634Z,42.10
2019-05-17T17:28:42.620Z,42.22
2019-05-17T17:31:31.323Z,42.71
2019-05-17T17:34:20.059Z,42.75
2019-05-17T17:37:09.409Z,42.91
2019-05-17T17:39:58.857Z,42.79
2019-05-17T17:42:48.695Z,42.94
2019-05-17T17:45:37.856Z,42.93
2019-05-17T17:48:27.290Z,43.11
2019-05-17T17:51:16.093Z,43.10
2019-05-17T17:54:04.985Z,43.09
2019-05-17T17:56:56.313Z,43.16
2019-05-17T17:59:46.368Z,43.14
2019-05-17T18:02:35.808Z,42.83
2019-05-17T18:05:25.388Z,43.07
2019-05-17T18:08:14.397Z,43.05
2019-05-17T18:11:03.803Z,43.05
2019-05-17T18:13:53.775Z,43.05
2019-05-17T18:16:43.623Z,43.12
2019-05-17T18:19:33.261Z,43.29
2019-05-17T18:22:22.493Z,42.94
2019-05-17T18:25:11.637Z,43.32
2019-05-17T18:28:01.012Z,43.01
2019-05-17T18:30:49.669Z,43.10
2019-05-17T18:33:42.046Z,43.10
2019-05-17T18:36:32.971Z,43.05
2019-05-17T18:39:24.782Z,43.19
2019-05-17T18:42:15.373Z,43.20
2019-05-17T18:45:05.981Z,43.31
2019-05-17T18:47:56.129Z,43.33
2019-05-17T18:50:48.647Z,43.37
2019-05-17T18:53:42.711Z,43.53
2019-05-17T18:56:37.674Z,43.58
2019-05-17T18:59:34.107Z,43.58
2019-05-17T19:02:23.886Z,43.66
2019-05-17T19:05:15.551Z,43.76
2019-05-17T19:08:10.036Z,43.78
2019-05-17T19:11:00.028Z,43.81
2019-05-17T19:13:50.667Z,43.98
2019-05-17T19:16:42.972Z,44.03
2019-05-17T19:19:36.120Z,44.29
2019-05-17T19:22:27.548Z,44.24
2019-05-17T19:25:17.446Z,44.28
2019-05-17T19:28:07.497Z,44.39
2019-05-17T19:30:59.837Z,44.50
2019-05-17T19:33:51.265Z,44.70
2019-05-17T19:36:41.782Z,44.79
2019-05-17T19:39:34.578Z,44.89
2019-05-17T19:42:32.823Z,45.00
2019-05-17T19:45:22.758Z,45.29
2019-05-17T19:48:15.485Z,45.48
2019-05-17T19:51:14.359Z,45.67
2019-05-17T19:54:09.378Z,46.12
2019-05-17T19:56:59.998Z,46.29
2019-05-17T19:59:52.592Z,46.63
2019-05-17T20:02:42.547Z,46.89
2019-05-17T20:05:34.057Z,47.05
2019-05-17T20:08:24.884Z,47.27
2019-05-17T20:11:14.725Z,47.35
2019-05-17T20:14:06.845Z,47.51
2019-05-17T20:16:58.694Z,47.49
2019-05-17T20:19:52.193Z,47.63
2019-05-17T20:22:43.189Z,47.63
2019-05-17T20:25:35.166Z,47.78
2019-05-17T20:28:29.184Z,48.03
2019-05-17T20:31:20.574Z,48.15
2019-05-17T20:34:12.872Z,48.11
2019-05-17T20:37:06.815Z,48.09
2019-05-17T20:39:57.940Z,48.14
2019-05-17T20:42:48.518Z,48.15
2019-05-17T20:45:40.663Z,48.29
2019-05-17T20:48:30.559Z,48.30
2019-05-17T20:51:20.809Z,48.43
2019-05-17T20:54:10.874Z,48.57
2019-05-17T20:57:00.711Z,48.53
2019-05-17T20:59:55.080Z,48.60
2019-05-17T21:02:46.362Z,48.57
2019-05-17T21:05:37.851Z,48.69
2019-05-17T21:08:27.988Z,48.82
2019-05-17T21:11:19.467Z,48.97
2019-05-17T21:14:10.497Z,49.01
2019-05-17T21:20:16.457Z,49.12
2019-05-17T21:23:06.327Z,49.18
2019-05-17T21:25:59.196Z,49.37
2019-05-17T21:28:48.811Z,49.44
2019-05-17T21:31:38.696Z,49.47
2019-05-17T21:34:30.278Z,49.54
2019-05-17T21:37:20.840Z,49.72
2019-05-17T21:40:13.118Z,49.85
2019-05-17T21:43:05.357Z,49.79
2019-05-17T21:46:04.111Z,49.82
2019-05-17T21:48:53.130Z,49.88
2019-05-17T21:51:45.314Z,49.89
2019-05-17T21:54:35.824Z,50.00
2019-05-17T21:57:30.195Z,50.11
2019-05-17T22:01:22.108Z,50.15
2019-05-17T22:04:12.815Z,50.19
2019-05-17T22:07:06.203Z,50.28
2019-05-17T22:09:56.700Z,50.37
2019-05-17T22:12:48.028Z,50.50
2019-05-17T22:15:41.478Z,50.46
2019-05-17T22:18:31.694Z,50.47
2019-05-17T22:21:21.026Z,50.64
2019-05-17T22:24:09.878Z,50.69
2019-05-17T22:26:59.201Z,50.75
2019-05-17T22:29:50.882Z,50.68
2019-05-17T22:32:41.730Z,50.82
2019-05-17T22:35:31.004Z,50.77
2019-05-17T22:38:20.694Z,50.85
2019-05-17T22:41:11.061Z,50.75
2019-05-17T22:44:00.295Z,50.86
2019-05-17T22:46:49.807Z,50.92
2019-05-17T22:49:42.085Z,50.86
2019-05-17T22:52:36.400Z,50.95
2019-05-17T22:55:26.700Z,50.98
2019-05-17T22:58:16.479Z,51.02
2019-05-17T23:01:08.886Z,50.98
2019-05-17T23:03:59.301Z,51.00
2019-05-17T23:06:49.254Z,50.94
2019-05-17T23:09:42.617Z,51.01
2019-05-17T23:12:32.236Z,51.00
2019-05-17T23:15:22.212Z,50.99
2019-05-17T23:18:13.550Z,51.05
2019-05-17T23:21:03.122Z,51.14
2019-05-17T23:23:52.600Z,51.11
2019-05-17T23:26:41.670Z,51.25
2019-05-17T23:29:30.898Z,51.20
2019-05-17T23:32:20.506Z,51.25
2019-05-17T23:35:09.719Z,51.28
2019-05-17T23:37:58.796Z,51.37
2019-05-17T23:40:47.395Z,51.28
2019-05-17T23:43:37.035Z,51.20
2019-05-17T23:46:25.833Z,51.28
2019-05-17T23:49:14.471Z,51.22
2019-05-17T23:52:04.240Z,51.29
2019-05-17T23:54:53.109Z,51.31
2019-05-17T23:57:42.448Z,51.29
